Terminal Aerodrome Forecast
Issued by NWS

Home | Current Version | Previous Version | Text Only | Print | Product List | Glossary On
Versions: 1 2 3 4 5 6 7 8 9 10 11 12
348
FTUS43 KOAX 062320
TAFBFF
TAF
KBFF 062320Z 0700/0724 11015KT P6SM BKN080
     FM070300 07012KT P6SM BKN080
     FM071000 07012KT 2SM BR OVC015
     FM071500 08018KT P6SM BKN045
     FM071900 09022G33KT P6SM VCTS BKN050CB
      TEMPO 0720/0724 VRB20G35KT 4SM TSRA BKN025CB=

USA.gov is the U.S. government's official web portal to all federal, state and local government web resources and services.